Hatfield, Minnesota
Current Conditions -  °F | °C
As of 2:54 PM on Tuesday 27 Jan 2015 (Local Time) from KPQN Reporting Station
Overcast Overcast  
Wind Chill: -5°   Ceiling: 300
Heat Index:   Visibility: 10mi
Dew Point:   Wind: 10mph
Humidity: 100%   Direction: 160°SSE
Pressure: 30.03"   Gusts: NA
Location:  44.066°N, 96.3302°W
Report Text: KPQN 272054Z AUTO 16009KT 10SM OVC003 00/00 A3003 RMK AO2
Loading
Personal Weather Stations






























Interactive Weather Map New forecast layout! Learn more

10-Day Weather Forecast

Advertisements
Track Severe Weather on mobile